createdAt,value
2023-02-17T00:00:22.507Z,100101.06
2023-02-17T00:05:25.530Z,100126.72
2023-02-17T00:10:27.859Z,100089.44
2023-02-17T00:15:30.091Z,100089.53
2023-02-17T00:20:32.337Z,100125.03
2023-02-17T00:25:34.586Z,100045.59
2023-02-17T00:30:38.167Z,100104.28
2023-02-17T00:35:41.159Z,100104.97
2023-02-17T00:40:45.433Z,100126.81
2023-02-17T00:45:47.655Z,100122.63
2023-02-17T00:50:50.123Z,100096.22
2023-02-17T00:55:52.294Z,100077.72
2023-02-17T01:00:58.257Z,100070.31
2023-02-17T01:06:06.242Z,100105.25
2023-02-17T01:11:17.772Z,100085.63
2023-02-17T01:16:25.756Z,100104.03
2023-02-17T01:21:29.175Z,100100.47
2023-02-17T01:26:33.077Z,100092.59
2023-02-17T01:31:36.987Z,100077.16
2023-02-17T01:36:39.321Z,100094.03
2023-02-17T01:41:41.589Z,100061.50
2023-02-17T01:46:46.374Z,100090.69
2023-02-17T01:51:53.234Z,100077.34
2023-02-17T01:56:58.954Z,100097.53
2023-02-17T02:02:04.064Z,100081.44
2023-02-17T02:07:12.197Z,100072.28
2023-02-17T02:12:22.696Z,100086.56
2023-02-17T02:17:34.109Z,100067.59
2023-02-17T02:23:07.375Z,100088.69
2023-02-17T02:33:59.630Z,100090.13
2023-02-17T02:39:07.713Z,100092.66
2023-02-17T02:44:13.709Z,100046.75
2023-02-17T02:49:16.204Z,100080.34
2023-02-17T02:54:50.985Z,100090.47
2023-02-17T03:00:10.838Z,100092.25
2023-02-17T03:05:16.783Z,100092.00
2023-02-17T03:10:19.913Z,100064.63
2023-02-17T03:15:27.292Z,100062.09
2023-02-17T03:20:35.351Z,100053.09
2023-02-17T03:25:38.183Z,100081.47
2023-02-17T03:30:41.209Z,100077.16
2023-02-17T03:35:43.521Z,100080.28
2023-02-17T03:40:45.960Z,100079.28
2023-02-17T03:45:48.197Z,100061.31
2023-02-17T03:50:50.408Z,100066.97
2023-02-17T03:55:52.632Z,100039.72
2023-02-17T04:00:54.826Z,100049.78
2023-02-17T04:05:57.674Z,100060.31
2023-02-17T04:11:01.380Z,100060.16
2023-02-17T04:16:05.023Z,100083.41
2023-02-17T04:21:07.661Z,100086.72
2023-02-17T04:26:10.176Z,100084.94
2023-02-17T04:31:12.496Z,100081.13
2023-02-17T04:36:14.744Z,100076.59
2023-02-17T04:41:16.976Z,100085.59
2023-02-17T04:46:19.153Z,100077.81
2023-02-17T04:51:21.340Z,100066.94
2023-02-17T04:56:23.550Z,100037.13
2023-02-17T05:01:25.889Z,100069.06
2023-02-17T05:06:28.125Z,100056.66
2023-02-17T05:11:31.722Z,100096.88
2023-02-17T05:16:33.968Z,100079.50
2023-02-17T05:21:36.200Z,100079.59
2023-02-17T05:26:38.356Z,100101.56
2023-02-17T05:31:40.870Z,100073.38
2023-02-17T05:36:43.079Z,100099.88
2023-02-17T05:41:45.388Z,100105.22
2023-02-17T05:46:47.936Z,100103.78
2023-02-17T05:51:50.331Z,100095.16
2023-02-17T05:56:52.517Z,100110.50
2023-02-17T06:01:54.670Z,100108.03
2023-02-17T06:06:56.843Z,100078.75
2023-02-17T06:11:59.058Z,100087.66
2023-02-17T06:17:04.181Z,100118.94
2023-02-17T06:22:06.313Z,100120.59
2023-02-17T06:27:08.530Z,100103.28
2023-02-17T06:32:10.827Z,100093.09
2023-02-17T06:37:13.327Z,100123.59
2023-02-17T06:42:15.541Z,100109.50
2023-02-17T06:47:17.731Z,100116.38
2023-02-17T06:52:19.888Z,100115.59
2023-02-17T06:57:22.252Z,100072.91
2023-02-17T07:02:24.493Z,100112.53
2023-02-17T07:07:26.698Z,100119.19
2023-02-17T07:12:29.355Z,100092.56
2023-02-17T07:17:31.594Z,100081.38
2023-02-17T07:22:33.700Z,100067.97
2023-02-17T07:27:37.100Z,100098.03
2023-02-17T07:32:42.485Z,100094.47
2023-02-17T07:37:44.681Z,100071.09
2023-02-17T07:42:46.860Z,100069.66
2023-02-17T07:47:49.093Z,100015.25
2023-02-17T07:52:51.581Z,100093.50
2023-02-17T07:57:53.756Z,100090.41
2023-02-17T08:02:56.076Z,100064.63
2023-02-17T08:08:16.780Z,100085.06
2023-02-17T08:13:21.847Z,100103.59
2023-02-17T08:18:24.219Z,100065.69
2023-02-17T08:23:26.472Z,100086.53
2023-02-17T08:28:32.994Z,100099.19
2023-02-17T08:33:35.234Z,100092.50
2023-02-17T08:38:37.438Z,100075.91
2023-02-17T08:43:39.613Z,100082.13
2023-02-17T08:48:42.457Z,100083.66
2023-02-17T08:53:45.826Z,100060.38
2023-02-17T08:58:48.613Z,100090.75
2023-02-17T09:03:52.574Z,100082.09
2023-02-17T09:08:54.918Z,100035.19
2023-02-17T09:13:57.067Z,100086.00
2023-02-17T09:18:59.320Z,100046.44
2023-02-17T09:24:01.447Z,100032.44
2023-02-17T09:29:04.731Z,100034.78
2023-02-17T09:34:07.179Z,100066.00
2023-02-17T09:39:12.406Z,100021.03
2023-02-17T09:44:24.424Z,100063.00
2023-02-17T09:49:31.066Z,100063.91
2023-02-17T09:55:07.005Z,100059.38
2023-02-17T10:00:23.226Z,100041.50
2023-02-17T10:05:29.145Z,100020.81
2023-02-17T10:10:38.829Z,100054.47
2023-02-17T10:15:43.790Z,100004.28
2023-02-17T10:20:51.556Z,100037.84
2023-02-17T10:26:14.887Z,100025.63
2023-02-17T10:31:27.613Z,100036.00
2023-02-17T10:36:52.225Z,100033.91
2023-02-17T10:41:55.717Z,99959.81
2023-02-17T10:46:58.477Z,100020.16
2023-02-17T10:52:13.516Z,99965.63
2023-02-17T10:57:17.752Z,100005.63
2023-02-17T11:02:28.664Z,100002.28
2023-02-17T11:07:36.681Z,99943.59
2023-02-17T11:12:45.446Z,99994.09
2023-02-17T11:17:50.524Z,99969.16
2023-02-17T11:23:25.608Z,99981.50
2023-02-17T11:28:28.087Z,99941.13
2023-02-17T11:33:33.777Z,99925.94
2023-02-17T11:38:39.087Z,99967.00
2023-02-17T11:44:00.937Z,99969.34
2023-02-17T11:49:03.376Z,99964.91
2023-02-17T11:54:26.562Z,99964.44
2023-02-17T11:59:54.798Z,99899.78
2023-02-17T12:05:06.012Z,99919.06
2023-02-17T12:10:14.404Z,99945.59
2023-02-17T12:15:34.445Z,99949.00
2023-02-17T12:21:04.064Z,99932.59
2023-02-17T12:26:35.043Z,99938.34
2023-02-17T12:32:01.923Z,99935.91
2023-02-17T12:37:06.234Z,99911.78
2023-02-17T12:42:16.983Z,99934.22
2023-02-17T12:47:25.152Z,99870.47
2023-02-17T12:52:34.322Z,99861.88
2023-02-17T12:57:48.910Z,99931.97
2023-02-17T13:02:51.372Z,99893.03
2023-02-17T13:08:17.902Z,99920.50
2023-02-17T13:13:29.189Z,99929.63
2023-02-17T13:18:35.378Z,99894.72
2023-02-17T13:23:40.489Z,99919.59
2023-02-17T13:28:42.839Z,99864.88
2023-02-17T13:33:48.065Z,99869.59
2023-02-17T13:39:00.713Z,99853.44
2023-02-17T13:44:22.851Z,99904.91
2023-02-17T13:49:27.951Z,99864.56
2023-02-17T13:54:30.237Z,99915.47
2023-02-17T13:59:32.429Z,99863.31
2023-02-17T14:04:34.625Z,99883.66
2023-02-17T14:09:37.278Z,99874.13
2023-02-17T14:14:39.598Z,99785.75
2023-02-17T14:19:46.705Z,99875.44
2023-02-17T14:25:03.276Z,99865.56
2023-02-17T14:30:06.970Z,99836.91
2023-02-17T14:35:12.761Z,99877.69
2023-02-17T14:40:23.664Z,99885.41
2023-02-17T14:45:25.868Z,99880.78
2023-02-17T14:50:28.095Z,99878.16
2023-02-17T14:55:34.425Z,99835.34
2023-02-17T15:00:36.660Z,99847.13
2023-02-17T15:05:39.080Z,99889.91
2023-02-17T15:10:41.373Z,99852.63
2023-02-17T15:15:47.936Z,99885.59
2023-02-17T15:20:51.349Z,99884.50
2023-02-17T15:25:55.684Z,99870.44
2023-02-17T15:30:57.858Z,99871.78
2023-02-17T15:36:00.833Z,99829.75
2023-02-17T15:41:04.879Z,99880.75
2023-02-17T15:46:13.365Z,99881.72
2023-02-17T15:51:19.610Z,99869.66
2023-02-17T15:56:27.101Z,99861.28
2023-02-17T16:01:31.615Z,99864.03
2023-02-17T16:06:33.851Z,99856.16
2023-02-17T16:11:39.438Z,99812.28
2023-02-17T16:16:41.839Z,99847.97
2023-02-17T16:21:44.076Z,99815.31
2023-02-17T16:26:46.555Z,99846.06
2023-02-17T16:31:49.407Z,99844.59
2023-02-17T16:36:53.656Z,99832.31
2023-02-17T16:41:55.889Z,99802.25
2023-02-17T16:47:00.630Z,99798.91
2023-02-17T16:52:18.651Z,99789.41
2023-02-17T16:57:20.972Z,99756.75
2023-02-17T17:02:23.290Z,99750.31
2023-02-17T17:07:29.720Z,99759.00
2023-02-17T17:12:32.104Z,99766.41
2023-02-17T17:17:48.879Z,99777.16
2023-02-17T17:22:51.771Z,99749.13
2023-02-17T17:27:54.387Z,99725.81
2023-02-17T17:32:56.636Z,99727.81
2023-02-17T17:37:59.078Z,99751.84
2023-02-17T17:43:01.358Z,99722.09
2023-02-17T17:48:03.714Z,99718.66
2023-02-17T17:53:06.026Z,99709.53
2023-02-17T17:58:13.772Z,99744.59
2023-02-17T18:03:16.058Z,99723.88
2023-02-17T18:08:18.787Z,99725.47
2023-02-17T18:13:21.043Z,99738.72
2023-02-17T18:18:25.309Z,99733.66
2023-02-17T18:23:27.653Z,99729.22
2023-02-17T18:28:36.410Z,99729.13
2023-02-17T18:33:40.862Z,99724.25
2023-02-17T18:38:44.210Z,99711.88
2023-02-17T18:43:47.091Z,99694.94
2023-02-17T18:48:50.143Z,99694.84
2023-02-17T18:53:54.040Z,99699.78
2023-02-17T18:58:56.801Z,99685.94
2023-02-17T19:03:59.741Z,99687.28
2023-02-17T19:09:04.527Z,99689.25
2023-02-17T19:14:06.949Z,99647.22
2023-02-17T19:19:09.346Z,99684.94
2023-02-17T19:24:11.868Z,99623.00
2023-02-17T19:29:14.076Z,99587.53
2023-02-17T19:34:17.843Z,99644.56
2023-02-17T19:39:19.998Z,99668.53
2023-02-17T19:44:22.304Z,99641.34
2023-02-17T19:49:24.573Z,99673.72
2023-02-17T19:54:27.132Z,99671.81
2023-02-17T19:59:33.851Z,99659.66
2023-02-17T20:04:36.095Z,99616.22
2023-02-17T20:09:40.620Z,99652.25
2023-02-17T20:14:42.886Z,99603.59
2023-02-17T20:19:45.078Z,99617.31
2023-02-17T20:24:47.341Z,99603.09
2023-02-17T20:29:49.684Z,99600.47
2023-02-17T20:34:52.770Z,99624.56
2023-02-17T20:39:54.951Z,99601.16
2023-02-17T20:44:57.282Z,99596.22
2023-02-17T20:49:59.635Z,99585.72
2023-02-17T20:55:02.042Z,99548.00
2023-02-17T21:00:07.570Z,99520.41
2023-02-17T21:05:10.130Z,99559.41
2023-02-17T21:10:19.750Z,99540.19
2023-02-17T21:15:22.627Z,99563.84
2023-02-17T21:20:25.021Z,99523.09
2023-02-17T21:25:28.086Z,99529.16
2023-02-17T21:30:30.307Z,99483.00
2023-02-17T21:35:32.589Z,99511.50
2023-02-17T21:40:34.811Z,99498.91
2023-02-17T21:45:38.592Z,99535.25
2023-02-17T21:50:40.868Z,99491.28
2023-02-17T21:55:43.198Z,99489.94
2023-02-17T22:00:48.881Z,99503.34
2023-02-17T22:05:51.210Z,99496.34
2023-02-17T22:10:53.452Z,99401.78
2023-02-17T22:15:58.824Z,99425.69
2023-02-17T22:21:01.092Z,99456.84
2023-02-17T22:26:18.003Z,99469.53
2023-02-17T22:31:22.628Z,99459.59
2023-02-17T22:36:25.419Z,99465.44
2023-02-17T22:41:27.792Z,99455.84
2023-02-17T22:46:30.028Z,99406.75
2023-02-17T22:51:36.169Z,99430.66
2023-02-17T22:56:38.458Z,99381.91
2023-02-17T23:01:40.689Z,99385.44
2023-02-17T23:06:43.845Z,99350.91
2023-02-17T23:11:57.825Z,99400.91
2023-02-17T23:17:03.269Z,99372.44
2023-02-17T23:22:12.346Z,99376.41
2023-02-17T23:27:15.211Z,99413.88
2023-02-17T23:32:17.400Z,99403.09
2023-02-17T23:37:19.626Z,99376.19
2023-02-17T23:42:21.804Z,99354.09
2023-02-17T23:47:24.121Z,99351.91
2023-02-17T23:52:26.317Z,99371.19
2023-02-17T23:57:29.764Z,99381.91
